Time;durP1;ratioP1;P1;durP2;ratioP2;P2;SDS_P1;SDS_P2;PMS_P1;PMS_P2;Temp;Humidity;BMP_temperature;BMP_pressure;BME280_temperature;BME280_humidity;BME280_pressure;Samples;Min_cycle;Max_cycle;Signal;HPM_P1;HPM_P2
2021/04/08 00:02:25;;;;;;;10.18;5.60;;;2.50;99.90;;;;;;5033930;28;20483;-75
2021/04/08 00:04:51;;;;;;;8.13;5.28;;;2.40;99.90;;;;;;5032511;28;20026;-71
2021/04/08 00:07:16;;;;;;;13.60;5.68;;;2.40;99.90;;;;;;5031001;28;20034;-72
2021/04/08 00:09:42;;;;;;;12.13;5.22;;;2.40;99.90;;;;;;5030886;28;20108;-73
2021/04/08 00:12:08;;;;;;;7.88;4.97;;;2.50;99.90;;;;;;5031075;28;20044;-72
2021/04/08 00:14:34;;;;;;;5.65;5.03;;;2.40;99.90;;;;;;5030952;28;20029;-72
2021/04/08 00:16:59;;;;;;;7.57;5.78;;;2.50;99.90;;;;;;5030846;28;20140;-73
2021/04/08 00:19:25;;;;;;;9.30;5.25;;;2.60;99.90;;;;;;5030832;28;20074;-71
2021/04/08 00:21:51;;;;;;;9.23;5.82;;;2.50;99.90;;;;;;5030522;28;20100;-72
2021/04/08 00:24:16;;;;;;;10.20;5.32;;;2.50;99.90;;;;;;5029790;28;20033;-73
2021/04/08 00:26:42;;;;;;;10.65;5.63;;;2.60;99.90;;;;;;5030343;28;20035;-73
2021/04/08 00:29:08;;;;;;;9.95;5.43;;;2.60;99.90;;;;;;5030438;28;20111;-72
2021/04/08 00:31:34;;;;;;;6.72;5.45;;;2.60;99.90;;;;;;5030411;28;20048;-72
2021/04/08 00:33:59;;;;;;;9.13;5.50;;;2.50;99.90;;;;;;5030770;28;20114;-70
2021/04/08 00:36:25;;;;;;;10.00;5.88;;;2.60;99.90;;;;;;5031130;28;20034;-71
2021/04/08 00:38:51;;;;;;;8.70;5.97;;;2.60;99.90;;;;;;5030367;28;20022;-72
2021/04/08 00:41:16;;;;;;;11.18;5.72;;;2.60;99.90;;;;;;5030482;28;20440;-73
2021/04/08 00:43:42;;;;;;;10.80;5.53;;;2.60;99.90;;;;;;5030146;28;20503;-73
2021/04/08 00:46:08;;;;;;;14.20;5.38;;;2.60;99.90;;;;;;5034318;28;20476;-73
2021/04/08 00:48:33;;;;;;;8.73;5.80;;;2.60;99.90;;;;;;5034765;28;20480;-73
2021/04/08 00:50:59;;;;;;;7.05;5.53;;;2.60;99.90;;;;;;5035487;28;20387;-73
2021/04/08 00:53:28;;;;;;;12.38;6.15;;;2.60;99.90;;;;;;5034262;28;20048;-73
2021/04/08 00:55:56;;;;;;;9.63;5.60;;;2.50;99.90;;;;;;5034101;28;20021;-72
2021/04/08 00:58:22;;;;;;;9.63;5.80;;;2.50;99.90;;;;;;5034188;28;20025;-73
2021/04/08 01:00:49;;;;;;;9.07;5.50;;;2.60;99.90;;;;;;5033930;28;20017;-72
2021/04/08 01:03:16;;;;;;;7.53;5.43;;;2.60;99.90;;;;;;5033736;28;20033;-72
2021/04/08 01:05:42;;;;;;;9.35;6.05;;;2.70;99.90;;;;;;5034927;28;20061;-72
2021/04/08 01:08:08;;;;;;;10.00;6.00;;;2.60;99.90;;;;;;5034961;28;20468;-73
2021/04/08 01:10:34;;;;;;;12.00;6.15;;;2.70;99.90;;;;;;5034409;28;20040;-74
2021/04/08 01:13:04;;;;;;;11.15;6.40;;;2.70;99.90;;;;;;5033160;28;20040;-73
2021/04/08 01:15:30;;;;;;;9.52;6.00;;;2.60;99.90;;;;;;5034413;28;20040;-74
2021/04/08 01:18:10;;;;;;;7.57;5.47;;;2.60;99.90;;;;;;5034690;28;20029;-73
2021/04/08 01:21:00;;;;;;;10.95;6.32;;;2.70;99.90;;;;;;5032633;28;20434;-71
2021/04/08 01:23:48;;;;;;;7.57;5.80;;;2.60;99.90;;;;;;5032231;28;20345;-73
2021/04/08 01:26:19;;;;;;;13.70;6.50;;;2.50;99.90;;;;;;5034555;28;20538;-74
2021/04/08 01:29:02;;;;;;;8.80;6.00;;;2.60;99.90;;;;;;5034378;28;20087;-74
2021/04/08 01:31:28;;;;;;;7.85;5.90;;;2.70;99.90;;;;;;5033439;28;20029;-74
2021/04/08 01:34:03;;;;;;;10.75;6.00;;;2.70;99.90;;;;;;5033114;28;20156;-73
2021/04/08 01:36:32;;;;;;;10.48;5.43;;;2.60;99.90;;;;;;5034309;28;20021;-73
2021/04/08 01:39:10;;;;;;;11.40;6.25;;;2.50;99.90;;;;;;5034243;28;20053;-73
2021/04/08 01:41:42;;;;;;;11.52;6.65;;;2.70;99.90;;;;;;5033552;28;20056;-73
2021/04/08 01:44:14;;;;;;;9.43;6.70;;;2.40;99.90;;;;;;5032631;28;20025;-74
2021/04/08 01:46:43;;;;;;;11.45;5.80;;;2.30;99.90;;;;;;5033826;28;20038;-73
2021/04/08 01:49:11;;;;;;;9.45;6.50;;;2.30;99.90;;;;;;5034141;28;20101;-74
2021/04/08 01:51:37;;;;;;;10.35;6.10;;;2.40;99.90;;;;;;5034092;28;20022;-73
2021/04/08 01:54:05;;;;;;;8.75;5.75;;;2.30;99.90;;;;;;5033193;28;20530;-71
2021/04/08 01:56:34;;;;;;;8.90;5.88;;;2.30;99.90;;;;;;5033065;28;20489;-72
2021/04/08 01:59:01;;;;;;;8.45;5.70;;;2.40;99.90;;;;;;5033788;28;20130;-73
2021/04/08 02:01:28;;;;;;;9.73;5.15;;;2.30;99.90;;;;;;5033942;28;20029;-74
2021/04/08 02:03:55;;;;;;;8.30;4.70;;;2.30;99.90;;;;;;5036595;28;20154;-72
2021/04/08 02:06:24;;;;;;;7.85;4.68;;;2.40;99.90;;;;;;5037744;28;20026;-72
2021/04/08 02:08:52;;;;;;;7.63;4.82;;;2.40;99.90;;;;;;5038192;28;20021;-72
2021/04/08 02:11:19;;;;;;;6.57;4.78;;;2.50;99.90;;;;;;5037211;28;20024;-72
2021/04/08 02:13:47;;;;;;;7.20;4.45;;;2.50;99.90;;;;;;5048239;28;20037;-75
2021/04/08 02:16:14;;;;;;;9.07;4.50;;;2.50;99.90;;;;;;5033321;28;20518;-74
2021/04/08 02:18:42;;;;;;;7.22;4.78;;;2.50;99.90;;;;;;5033854;28;20060;-74
2021/04/08 02:21:08;;;;;;;7.07;4.55;;;2.60;99.90;;;;;;5033649;28;20087;-72
2021/04/08 02:23:37;;;;;;;7.95;4.28;;;2.60;99.90;;;;;;5032017;28;20064;-72
2021/04/08 02:26:04;;;;;;;7.72;4.72;;;2.70;99.90;;;;;;5032947;28;20080;-72
2021/04/08 02:28:32;;;;;;;9.80;4.10;;;2.60;99.90;;;;;;5033408;28;20114;-74
2021/04/08 02:30:59;;;;;;;5.25;3.47;;;2.60;99.90;;;;;;5033255;28;20024;-71
2021/04/08 02:33:29;;;;;;;11.63;4.00;;;2.60;99.90;;;;;;5032765;28;20032;-73
2021/04/08 02:35:56;;;;;;;6.13;3.95;;;2.50;99.90;;;;;;5033308;28;20017;-71
2021/04/08 02:38:24;;;;;;;7.30;3.53;;;2.50;99.90;;;;;;5033056;28;20029;-73
2021/04/08 02:40:51;;;;;;;10.15;4.30;;;2.50;99.90;;;;;;5033084;28;20032;-72
2021/04/08 02:43:17;;;;;;;6.15;3.97;;;2.50;99.90;;;;;;5031214;28;20029;-72
2021/04/08 02:45:43;;;;;;;7.65;3.78;;;2.50;99.90;;;;;;5032957;28;20101;-72
2021/04/08 02:48:10;;;;;;;7.38;3.58;;;2.60;99.90;;;;;;5032399;28;20171;-72
2021/04/08 02:50:39;;;;;;;7.80;4.53;;;2.60;99.90;;;;;;5032297;28;20025;-71
2021/04/08 02:53:24;;;;;;;8.35;3.78;;;2.60;99.90;;;;;;5032063;28;20018;-71
2021/04/08 02:55:54;;;;;;;9.38;4.15;;;2.60;99.90;;;;;;5031782;28;20022;-74
2021/04/08 02:58:24;;;;;;;6.75;3.90;;;2.70;99.90;;;;;;5033592;28;20038;-73
2021/04/08 03:00:55;;;;;;;6.63;4.53;;;2.70;99.90;;;;;;5032140;28;20022;-72
2021/04/08 03:03:36;;;;;;;8.57;4.18;;;2.70;99.90;;;;;;5032043;28;20100;-72
2021/04/08 03:06:06;;;;;;;8.63;4.07;;;2.70;99.90;;;;;;5033219;28;20033;-72
2021/04/08 03:08:34;;;;;;;7.78;4.05;;;2.70;99.90;;;;;;5031621;28;20036;-73
2021/04/08 03:11:03;;;;;;;8.55;4.20;;;2.70;99.90;;;;;;5032880;28;20066;-73
2021/04/08 03:13:33;;;;;;;7.85;3.78;;;2.70;99.90;;;;;;5032349;28;20021;-73
2021/04/08 03:16:01;;;;;;;8.38;4.25;;;2.70;99.90;;;;;;5031926;28;20021;-73
2021/04/08 03:18:29;;;;;;;8.60;4.22;;;2.70;99.90;;;;;;5032576;28;20083;-72
2021/04/08 03:20:55;;;;;;;5.22;3.60;;;2.60;99.90;;;;;;5033082;28;20043;-74
2021/04/08 03:23:23;;;;;;;7.38;4.13;;;2.60;99.90;;;;;;5032240;28;20460;-72
2021/04/08 03:25:50;;;;;;;6.18;3.58;;;2.70;99.90;;;;;;5032787;28;20028;-72
2021/04/08 03:28:18;;;;;;;5.93;3.72;;;2.70;99.90;;;;;;5033267;28;20029;-72
2021/04/08 03:30:45;;;;;;;5.43;3.25;;;2.60;99.90;;;;;;5032139;28;20093;-72
2021/04/08 03:33:13;;;;;;;6.50;3.30;;;2.70;99.90;;;;;;5031740;28;20031;-73
2021/04/08 03:35:46;;;;;;;10.57;3.63;;;2.60;99.90;;;;;;5031879;28;20032;-71
2021/04/08 03:38:11;;;;;;;6.40;4.03;;;2.60;99.90;;;;;;5031701;28;20078;-73
2021/04/08 03:40:37;;;;;;;5.15;3.70;;;2.60;99.90;;;;;;5031490;28;20029;-74
2021/04/08 03:43:05;;;;;;;6.13;3.45;;;2.60;99.90;;;;;;5030530;28;20068;-74
2021/04/08 03:45:30;;;;;;;4.50;3.25;;;2.50;99.90;;;;;;5031140;28;20025;-72
2021/04/08 03:48:00;;;;;;;9.23;3.55;;;2.60;99.90;;;;;;5031264;28;20025;-73
2021/04/08 03:50:28;;;;;;;7.78;3.65;;;2.70;99.90;;;;;;5031326;28;20025;-70
2021/04/08 03:52:55;;;;;;;11.23;4.30;;;2.60;99.90;;;;;;5030175;28;20114;-70
2021/04/08 03:55:22;;;;;;;4.10;2.90;;;2.60;99.90;;;;;;5030977;28;20029;-72
2021/04/08 03:57:50;;;;;;;8.05;3.38;;;2.60;99.90;;;;;;5030715;28;20021;-72
2021/04/08 04:00:17;;;;;;;7.10;3.78;;;2.60;99.90;;;;;;5031575;28;20037;-72
2021/04/08 04:02:44;;;;;;;7.85;3.47;;;2.60;99.90;;;;;;5031013;28;20021;-72
2021/04/08 04:05:12;;;;;;;6.38;3.33;;;2.60;99.90;;;;;;5031066;28;20053;-73
2021/04/08 04:07:41;;;;;;;5.05;3.25;;;2.60;99.90;;;;;;5030642;28;20033;-72
2021/04/08 04:10:08;;;;;;;6.90;3.10;;;2.60;99.90;;;;;;5030826;28;20049;-72
2021/04/08 04:12:35;;;;;;;7.15;3.00;;;2.50;99.90;;;;;;5030801;28;20030;-72
2021/04/08 04:15:04;;;;;;;4.50;3.00;;;2.40;99.90;;;;;;5030641;28;20060;-71
2021/04/08 04:17:32;;;;;;;3.88;3.03;;;2.50;99.90;;;;;;5030957;28;20549;-72
2021/04/08 04:19:58;;;;;;;11.10;3.38;;;2.50;99.90;;;;;;5030783;28;20034;-73
2021/04/08 04:22:24;;;;;;;5.97;3.20;;;2.40;99.90;;;;;;5030664;28;20025;-72
2021/04/08 04:24:50;;;;;;;3.80;2.40;;;2.40;99.90;;;;;;5030227;28;20513;-70
2021/04/08 04:27:16;;;;;;;6.85;2.97;;;2.40;99.90;;;;;;5031651;28;20687;-70
2021/04/08 04:29:42;;;;;;;7.47;2.45;;;2.50;99.90;;;;;;5031013;28;20049;-74
2021/04/08 04:32:09;;;;;;;5.85;2.58;;;2.50;99.90;;;;;;5028999;28;20439;-70
2021/04/08 04:34:36;;;;;;;6.93;2.72;;;2.50;99.90;;;;;;5030465;28;20033;-71
2021/04/08 04:37:02;;;;;;;5.47;2.35;;;2.60;99.90;;;;;;5032680;28;20407;-73
2021/04/08 04:39:27;;;;;;;4.50;2.45;;;2.50;99.90;;;;;;5031927;28;20026;-70
2021/04/08 04:41:53;;;;;;;6.70;2.22;;;2.50;99.90;;;;;;5030799;28;20023;-73
2021/04/08 04:44:18;;;;;;;5.65;2.28;;;2.50;99.90;;;;;;5032705;28;20025;-74
2021/04/08 04:46:44;;;;;;;7.13;2.70;;;2.50;99.90;;;;;;5037451;28;20037;-71
2021/04/08 04:49:10;;;;;;;5.47;3.42;;;2.60;99.90;;;;;;5046702;28;20040;-71
2021/04/08 04:51:35;;;;;;;6.22;2.75;;;2.50;99.90;;;;;;5046056;28;20032;-72
2021/04/08 04:54:01;;;;;;;6.95;2.95;;;2.50;99.90;;;;;;5046031;28;20021;-72
2021/04/08 04:56:27;;;;;;;8.25;3.03;;;2.60;99.90;;;;;;5045673;28;20021;-72
2021/04/08 04:58:52;;;;;;;8.35;3.20;;;2.50;99.90;;;;;;5037825;28;20033;-70
2021/04/08 05:01:18;;;;;;;4.85;2.67;;;2.50;99.90;;;;;;5031431;28;20032;-72
2021/04/08 05:03:44;;;;;;;9.82;3.90;;;2.50;99.90;;;;;;5030495;28;20104;-71
2021/04/08 05:06:10;;;;;;;8.93;3.88;;;2.60;99.90;;;;;;5031231;28;20033;-71
2021/04/08 05:08:35;;;;;;;8.73;3.78;;;2.60;99.90;;;;;;5029815;28;20087;-72
2021/04/08 05:11:02;;;;;;;5.72;4.07;;;2.70;99.90;;;;;;5031789;28;20128;-71
2021/04/08 05:13:27;;;;;;;8.30;4.20;;;2.50;99.90;;;;;;5031012;28;20025;-71
2021/04/08 05:15:53;;;;;;;8.10;4.30;;;2.50;99.90;;;;;;5031111;28;20084;-71
2021/04/08 05:18:18;;;;;;;5.00;4.00;;;2.60;99.90;;;;;;5031251;28;20032;-73
2021/04/08 05:20:44;;;;;;;7.70;4.40;;;2.60;99.90;;;;;;5031375;28;20025;-72
2021/04/08 05:23:10;;;;;;;6.97;4.03;;;2.60;99.90;;;;;;5030871;28;20029;-73
2021/04/08 05:25:35;;;;;;;9.32;4.43;;;2.60;99.90;;;;;;5031635;28;20026;-71
2021/04/08 05:28:01;;;;;;;6.25;4.07;;;2.60;99.90;;;;;;5029965;28;20573;-70
2021/04/08 05:30:27;;;;;;;7.55;3.63;;;2.70;99.90;;;;;;5031561;28;20034;-71
2021/04/08 05:32:52;;;;;;;9.23;4.20;;;2.70;99.90;;;;;;5033488;28;20391;-72
2021/04/08 05:35:19;;;;;;;8.30;3.90;;;2.60;99.90;;;;;;5034974;28;20025;-72
2021/04/08 05:37:44;;;;;;;7.90;3.38;;;2.60;99.90;;;;;;5034937;28;20068;-71
2021/04/08 05:40:10;;;;;;;7.20;4.00;;;2.70;99.90;;;;;;5034806;28;20428;-71
2021/04/08 05:42:36;;;;;;;6.28;3.85;;;2.70;99.90;;;;;;5034730;28;20021;-73
2021/04/08 05:45:02;;;;;;;12.40;4.05;;;2.80;99.90;;;;;;5034425;28;20033;-71
2021/04/08 05:47:28;;;;;;;7.97;3.58;;;2.90;99.90;;;;;;5034896;28;20033;-70
2021/04/08 05:49:53;;;;;;;5.05;3.50;;;2.90;99.90;;;;;;5035045;28;20107;-71
2021/04/08 05:52:19;;;;;;;7.97;3.58;;;2.90;99.90;;;;;;5034986;28;20029;-72
2021/04/08 05:54:45;;;;;;;7.32;3.88;;;2.90;99.90;;;;;;5035020;28;20025;-72
2021/04/08 05:57:10;;;;;;;8.52;3.78;;;2.80;99.90;;;;;;5033924;28;20124;-70
2021/04/08 05:59:36;;;;;;;5.53;3.78;;;2.80;99.90;;;;;;5035446;28;20075;-70
2021/04/08 06:02:02;;;;;;;7.63;4.10;;;2.90;99.90;;;;;;5034671;28;20503;-70
2021/04/08 06:04:27;;;;;;;4.97;4.00;;;3.10;99.90;;;;;;5033806;28;20033;-72
2021/04/08 06:06:53;;;;;;;8.60;3.60;;;3.10;99.90;;;;;;5034301;28;20510;-71
2021/04/08 06:09:19;;;;;;;9.45;4.15;;;3.30;99.90;;;;;;5034696;28;20082;-73
2021/04/08 06:11:44;;;;;;;9.15;4.63;;;3.10;99.90;;;;;;5034434;28;20040;-71
2021/04/08 06:14:10;;;;;;;8.65;4.30;;;3.10;99.90;;;;;;5033012;28;20045;-74
2021/04/08 06:16:36;;;;;;;11.05;4.20;;;3.30;99.90;;;;;;5021323;28;20480;-71
2021/04/08 06:19:02;;;;;;;9.63;3.97;;;3.30;99.90;;;;;;5031059;28;20384;-72
2021/04/08 06:21:27;;;;;;;9.85;4.57;;;3.30;99.90;;;;;;5034349;28;20383;-72
2021/04/08 06:23:53;;;;;;;10.18;4.10;;;3.30;99.90;;;;;;5033646;28;20264;-72
2021/04/08 06:26:20;;;;;;;5.97;3.47;;;3.40;99.90;;;;;;5033987;28;20155;-71
2021/04/08 06:28:45;;;;;;;9.00;3.63;;;3.50;99.90;;;;;;5034829;28;20160;-71
2021/04/08 06:31:11;;;;;;;12.95;4.88;;;3.80;99.90;;;;;;5033974;28;20096;-72
2021/04/08 06:33:37;;;;;;;14.07;4.25;;;3.90;99.90;;;;;;5033512;28;20056;-71
2021/04/08 06:36:03;;;;;;;7.68;3.88;;;3.90;99.90;;;;;;5034107;28;20025;-72
2021/04/08 06:38:29;;;;;;;6.68;3.33;;;3.90;99.90;;;;;;5033721;28;20017;-72
2021/04/08 06:40:54;;;;;;;5.20;3.58;;;3.80;99.90;;;;;;5034374;28;20096;-71
2021/04/08 06:43:20;;;;;;;6.18;3.67;;;3.50;99.90;;;;;;5034014;28;20033;-70
2021/04/08 06:45:49;;;;;;;10.25;3.30;;;3.70;99.90;;;;;;5034396;28;20032;-71
2021/04/08 06:48:23;;;;;;;9.98;4.10;;;3.60;99.90;;;;;;5035497;28;20483;-71
2021/04/08 06:50:52;;;;;;;6.28;3.70;;;3.80;99.90;;;;;;5036122;28;20353;-71
2021/04/08 06:53:18;;;;;;;12.13;3.80;;;3.80;99.90;;;;;;5036966;28;20474;-70
2021/04/08 06:55:47;;;;;;;4.28;2.80;;;3.70;99.90;;;;;;5033875;28;20025;-72
2021/04/08 06:58:14;;;;;;;6.15;3.00;;;3.80;99.90;;;;;;5035502;28;20412;-73
2021/04/08 07:00:39;;;;;;;6.95;3.45;;;3.90;99.90;;;;;;5033365;28;20140;-72
2021/04/08 07:03:08;;;;;;;5.13;2.78;;;4.00;99.90;;;;;;5033351;28;20491;-73
2021/04/08 07:05:34;;;;;;;7.55;2.72;;;4.10;99.90;;;;;;5032899;28;20480;-72
2021/04/08 07:08:00;;;;;;;6.22;2.80;;;4.20;99.90;;;;;;5033701;28;20098;-72
2021/04/08 07:10:25;;;;;;;7.60;3.35;;;4.20;99.90;;;;;;5035204;28;20112;-71
2021/04/08 07:12:55;;;;;;;8.27;2.80;;;4.40;99.90;;;;;;5034156;28;20032;-72
2021/04/08 07:15:22;;;;;;;8.52;2.72;;;4.40;99.90;;;;;;5034970;28;20103;-73
2021/04/08 07:17:48;;;;;;;4.32;2.30;;;4.40;99.90;;;;;;5033751;28;20510;-73
2021/04/08 07:20:13;;;;;;;4.93;2.75;;;4.50;99.90;;;;;;5034060;28;20029;-73
2021/04/08 07:22:42;;;;;;;5.60;2.33;;;4.60;99.90;;;;;;5033638;28;20029;-73
2021/04/08 07:25:22;;;;;;;7.07;2.88;;;4.60;99.90;;;;;;5035521;28;20032;-73
2021/04/08 07:27:47;;;;;;;6.93;2.65;;;4.50;99.90;;;;;;5034739;28;20040;-74
2021/04/08 07:30:18;;;;;;;4.53;2.47;;;4.30;99.90;;;;;;5033397;28;20030;-72
2021/04/08 07:32:56;;;;;;;2.47;2.10;;;4.30;99.90;;;;;;5034078;28;20080;-72
2021/04/08 07:35:22;;;;;;;6.72;2.72;;;4.30;99.90;;;;;;5032212;28;20021;-73
2021/04/08 07:37:59;;;;;;;5.40;2.60;;;4.30;99.90;;;;;;5032267;28;20040;-74
2021/04/08 07:40:26;;;;;;;6.45;3.00;;;4.20;99.90;;;;;;5026225;28;20037;-71
2021/04/08 07:42:52;;;;;;;5.38;2.50;;;4.30;99.90;;;;;;5012357;28;20045;-70
2021/04/08 07:45:27;;;;;;;4.63;2.33;;;4.20;99.90;;;;;;5012078;28;20105;-70
2021/04/08 07:48:01;;;;;;;6.90;2.83;;;4.20;99.90;;;;;;5011414;28;20388;-71
2021/04/08 07:50:27;;;;;;;3.92;2.33;;;4.20;99.90;;;;;;5026947;28;20031;-70
2021/04/08 07:52:53;;;;;;;4.57;2.47;;;4.20;99.90;;;;;;5035987;28;20052;-72
2021/04/08 07:55:34;;;;;;;6.10;2.97;;;4.60;99.90;;;;;;5033952;28;20543;-72
2021/04/08 07:58:13;;;;;;;6.65;2.80;;;4.80;99.90;;;;;;5032259;28;20034;-71
2021/04/08 08:00:40;;;;;;;5.82;2.83;;;5.00;99.90;;;;;;5031725;28;20029;-72
2021/04/08 08:03:19;;;;;;;9.38;2.97;;;5.00;99.90;;;;;;5030399;28;20029;-70
2021/04/08 08:05:48;;;;;;;10.65;2.95;;;4.90;99.90;;;;;;5032690;28;20404;-72
2021/04/08 08:08:22;;;;;;;10.68;3.30;;;5.10;99.90;;;;;;5032535;28;20025;-73
2021/04/08 08:11:01;;;;;;;4.90;2.42;;;5.00;99.90;;;;;;5033457;28;20028;-72
2021/04/08 08:13:31;;;;;;;7.68;2.60;;;4.70;99.90;;;;;;5032064;28;20101;-71
2021/04/08 08:15:58;;;;;;;5.95;2.70;;;4.20;99.90;;;;;;5031925;28;20100;-71
2021/04/08 08:18:31;;;;;;;6.55;2.40;;;4.20;99.90;;;;;;5031952;28;20025;-71
2021/04/08 08:21:02;;;;;;;;;;;4.30;99.90;;;;;;5033099;28;20033;-71
2021/04/08 08:24:04;;;;;;;6.30;2.17;;;4.30;99.90;;;;;;5031032;28;19927;-72
2021/04/08 08:26:59;;;;;;;5.20;2.55;;;4.50;99.90;;;;;;5010681;28;20049;-72
2021/04/08 08:29:30;;;;;;;12.98;2.83;;;4.40;99.90;;;;;;5007669;28;20606;-72
2021/04/08 08:32:01;;;;;;;8.07;2.90;;;4.40;99.90;;;;;;5012751;28;20048;-72
2021/04/08 08:34:37;;;;;;;7.05;2.85;;;4.40;99.90;;;;;;5013405;28;20026;-73
2021/04/08 08:37:05;;;;;;;9.18;4.47;;;4.70;99.90;;;;;;5013867;28;20546;-73
2021/04/08 08:39:33;;;;;;;6.60;2.80;;;4.70;99.90;;;;;;5025555;28;20061;-73
2021/04/08 08:42:00;;;;;;;9.23;3.05;;;4.80;99.90;;;;;;5032877;28;20022;-73
2021/04/08 08:44:27;;;;;;;5.82;2.30;;;4.80;99.90;;;;;;5032342;28;20488;-73
2021/04/08 08:46:59;;;;;;;7.65;2.53;;;5.10;99.90;;;;;;5032566;28;20034;-73
2021/04/08 08:49:39;;;;;;;6.18;3.08;;;5.00;99.90;;;;;;5032050;28;20030;-71
2021/04/08 08:52:08;;;;;;;4.68;2.55;;;4.50;99.90;;;;;;5033857;28;20403;-70
2021/04/08 08:54:34;;;;;;;5.95;2.63;;;4.40;99.90;;;;;;5033990;28;20491;-71
2021/04/08 08:57:01;;;;;;;8.32;2.97;;;4.50;99.90;;;;;;5035247;28;20026;-71
2021/04/08 08:59:28;;;;;;;3.50;2.92;;;4.50;99.90;;;;;;5033940;28;20029;-72
2021/04/08 09:01:55;;;;;;;7.05;2.95;;;4.80;99.90;;;;;;5035292;28;20029;-73
2021/04/08 09:04:21;;;;;;;5.20;2.70;;;5.30;99.90;;;;;;5034241;28;20112;-73
2021/04/08 09:06:48;;;;;;;5.60;2.63;;;6.60;99.90;;;;;;5036315;28;20025;-72
2021/04/08 09:09:16;;;;;;;8.13;2.65;;;6.90;99.90;;;;;;5037038;28;20056;-72
2021/04/08 09:11:42;;;;;;;11.15;4.40;;;6.10;99.90;;;;;;5035063;28;20505;-72
2021/04/08 09:14:11;;;;;;;7.90;2.72;;;5.50;99.90;;;;;;5036382;28;20104;-72
2021/04/08 09:16:46;;;;;;;7.03;2.70;;;5.90;99.90;;;;;;5040184;28;20021;-72
2021/04/08 09:19:13;;;;;;;6.20;2.78;;;6.30;99.90;;;;;;5041011;28;20045;-73
2021/04/08 09:21:51;;;;;;;7.90;2.58;;;7.80;99.90;;;;;;5037282;28;20120;-72
2021/04/08 09:24:34;;;;;;;3.83;2.20;;;9.00;99.90;;;;;;5035765;28;20045;-76
2021/04/08 09:27:00;;;;;;;6.30;2.33;;;8.40;99.00;;;;;;5038104;28;20085;-74
2021/04/08 09:29:41;;;;;;;5.50;2.67;;;8.80;97.20;;;;;;5038393;28;20014;-74
2021/04/08 09:32:27;;;;;;;15.00;6.53;;;9.00;94.80;;;;;;5035965;28;20017;-75
2021/04/08 09:35:05;;;;;;;5.50;3.22;;;9.10;91.90;;;;;;5033968;28;20391;-73
2021/04/08 09:37:48;;;;;;;2.83;2.05;;;8.70;95.80;;;;;;5037068;28;20021;-73
2021/04/08 09:40:29;;;;;;;3.38;2.03;;;7.80;94.00;;;;;;5036737;28;20186;-73
2021/04/08 09:43:09;;;;;;;4.00;2.67;;;7.40;97.00;;;;;;5034351;28;20112;-74
2021/04/08 09:45:42;;;;;;;13.05;2.70;;;7.60;94.90;;;;;;5037447;28;20093;-75
2021/04/08 09:48:17;;;;;;;4.05;2.00;;;7.30;95.70;;;;;;5034681;28;20029;-74
2021/04/08 09:50:42;;;;;;;6.15;2.60;;;7.10;95.40;;;;;;5034429;28;20025;-76
2021/04/08 09:53:09;;;;;;;5.38;2.63;;;7.20;96.90;;;;;;5033904;28;20105;-73
2021/04/08 09:55:35;;;;;;;5.50;2.50;;;6.90;96.60;;;;;;5034830;28;20033;-73
2021/04/08 09:58:05;;;;;;;4.70;2.78;;;7.00;96.10;;;;;;5035367;28;20040;-73
2021/04/08 10:00:32;;;;;;;5.55;2.53;;;6.40;96.20;;;;;;5034495;28;20032;-73
2021/04/08 10:03:05;;;;;;;3.95;2.40;;;6.00;97.20;;;;;;5032648;28;20029;-73
2021/04/08 10:05:41;;;;;;;9.35;3.35;;;5.90;96.80;;;;;;5034320;28;20035;-73
2021/04/08 10:08:10;;;;;;;6.05;2.58;;;6.10;98.60;;;;;;5033027;28;20438;-73
2021/04/08 10:10:36;;;;;;;3.33;2.22;;;6.20;98.20;;;;;;5034557;28;20030;-74
2021/04/08 10:13:22;;;;;;;7.60;2.58;;;6.30;98.00;;;;;;5033166;28;20383;-74
2021/04/08 10:15:53;;;;;;;7.88;2.75;;;6.70;99.00;;;;;;5034192;28;20161;-74
2021/04/08 10:18:21;;;;;;;5.97;2.37;;;6.40;98.40;;;;;;5033487;28;20017;-73
2021/04/08 10:20:49;;;;;;;6.68;2.70;;;5.90;98.90;;;;;;5034890;28;20021;-74
2021/04/08 10:23:28;;;;;;;4.05;2.55;;;6.40;99.90;;;;;;5032633;28;20030;-74
2021/04/08 10:26:03;;;;;;;4.00;2.45;;;6.80;98.80;;;;;;5034670;28;20037;-73
2021/04/08 10:28:40;;;;;;;4.22;2.20;;;6.80;98.50;;;;;;5036509;28;20075;-73
2021/04/08 10:31:20;;;;;;;3.65;2.50;;;6.70;98.80;;;;;;5037550;28;20017;-73
2021/04/08 10:33:47;;;;;;;4.22;2.45;;;7.40;98.40;;;;;;5035378;28;20025;-74
2021/04/08 10:36:26;;;;;;;7.32;2.58;;;7.50;96.80;;;;;;5036721;28;20460;-73
2021/04/08 10:39:14;;;;;;;5.43;2.58;;;8.00;96.80;;;;;;5036207;28;20018;-74
2021/04/08 10:42:02;;;;;;;5.25;2.40;;;7.60;97.70;;;;;;5036023;28;20340;-73
2021/04/08 10:44:41;;;;;;;4.82;2.08;;;7.60;95.90;;;;;;5033302;28;20051;-74
2021/04/08 10:47:06;;;;;;;7.55;2.33;;;7.20;96.00;;;;;;5033829;28;20140;-72
2021/04/08 10:49:35;;;;;;;3.47;1.85;;;7.40;94.90;;;;;;5033671;28;20048;-74
2021/04/08 10:52:06;;;;;;;5.57;2.47;;;7.30;94.40;;;;;;5034277;28;20025;-72
2021/04/08 10:54:34;;;;;;;4.90;2.35;;;7.20;94.60;;;;;;5033331;28;20111;-73
2021/04/08 10:57:01;;;;;;;5.55;2.90;;;8.00;93.90;;;;;;5033478;28;20034;-74
2021/04/08 10:59:28;;;;;;;4.07;2.38;;;8.10;93.40;;;;;;5033176;28;20030;-72
2021/04/08 11:01:54;;;;;;;6.97;2.35;;;8.20;92.20;;;;;;5033538;28;20030;-72
2021/04/08 11:04:22;;;;;;;3.80;2.17;;;9.10;91.70;;;;;;5032699;28;20033;-74
2021/04/08 11:06:49;;;;;;;4.50;2.42;;;9.60;91.00;;;;;;5033582;28;20049;-73
2021/04/08 11:09:22;;;;;;;4.80;2.15;;;9.70;87.60;;;;;;5033208;28;20026;-74
2021/04/08 11:11:48;;;;;;;6.20;2.20;;;9.30;90.20;;;;;;5032583;28;20028;-73
2021/04/08 11:14:20;;;;;;;4.38;2.60;;;9.70;90.50;;;;;;5032250;28;20033;-73
2021/04/08 11:16:46;;;;;;;7.80;2.50;;;10.20;89.80;;;;;;5032335;28;20025;-74
2021/04/08 11:19:12;;;;;;;5.25;2.15;;;10.00;85.80;;;;;;5032509;28;20503;-73
2021/04/08 11:21:38;;;;;;;5.15;2.38;;;9.20;88.10;;;;;;5032818;28;20112;-73
2021/04/08 11:24:04;;;;;;;5.82;2.40;;;9.10;90.10;;;;;;5032195;28;20048;-73
2021/04/08 11:26:30;;;;;;;3.47;2.65;;;8.90;90.50;;;;;;5032765;28;20029;-73
2021/04/08 11:28:59;;;;;;;7.13;2.67;;;8.00;91.40;;;;;;5031845;28;20123;-73
2021/04/08 11:31:26;;;;;;;3.53;2.40;;;8.50;92.50;;;;;;5032563;28;20060;-73
2021/04/08 11:33:59;;;;;;;7.75;3.05;;;8.70;91.70;;;;;;5032945;28;20029;-72
2021/04/08 11:36:26;;;;;;;3.80;2.65;;;8.40;91.10;;;;;;5032236;28;20049;-72
2021/04/08 11:38:52;;;;;;;2.85;2.47;;;8.30;91.50;;;;;;5032737;28;20021;-71
2021/04/08 11:41:19;;;;;;;4.97;2.83;;;8.10;92.10;;;;;;5032191;28;20021;-72
2021/04/08 11:43:50;;;;;;;6.10;2.33;;;9.10;90.90;;;;;;5031466;28;20038;-72
2021/04/08 11:46:35;;;;;;;4.30;2.03;;;9.20;89.30;;;;;;5032357;28;20026;-73
2021/04/08 11:49:02;;;;;;;3.05;2.10;;;10.90;90.60;;;;;;5031989;28;20026;-72
2021/04/08 11:51:31;;;;;;;7.22;2.25;;;11.80;84.10;;;;;;5033085;28;20017;-71
2021/04/08 11:54:10;;;;;;;3.25;2.30;;;11.20;78.10;;;;;;5031740;28;20033;-69
2021/04/08 11:56:38;;;;;;;5.15;2.40;;;9.80;85.50;;;;;;5033059;28;20549;-69
2021/04/08 11:59:24;;;;;;;5.15;2.40;;;8.80;87.20;;;;;;5032804;28;20087;-71
2021/04/08 12:01:54;;;;;;;5.10;2.70;;;8.90;90.60;;;;;;5032761;28;20049;-73
2021/04/08 12:04:22;;;;;;;4.18;2.63;;;9.00;87.70;;;;;;5032261;28;20075;-73
2021/04/08 12:06:57;;;;;;;3.60;2.78;;;8.50;89.50;;;;;;5032776;28;20037;-71
2021/04/08 12:09:36;;;;;;;8.00;2.53;;;8.50;90.10;;;;;;5032580;28;20071;-72
2021/04/08 12:12:03;;;;;;;7.18;3.00;;;8.40;90.80;;;;;;5012938;28;20052;-71
2021/04/08 12:14:28;;;;;;;7.40;2.60;;;8.60;90.60;;;;;;5011828;28;20038;-72
2021/04/08 12:17:09;;;;;;;4.85;2.70;;;8.60;88.50;;;;;;5012112;28;20017;-74
2021/04/08 12:19:39;;;;;;;8.23;3.38;;;8.50;88.50;;;;;;5011716;28;20022;-73
2021/04/08 12:22:07;;;;;;;3.58;2.60;;;9.30;89.60;;;;;;5013303;28;20062;-74
2021/04/08 12:24:33;;;;;;;4.35;2.72;;;9.70;87.30;;;;;;5028233;28;20049;-73
2021/04/08 12:26:59;;;;;;;4.38;2.75;;;9.60;87.10;;;;;;5032751;28;20036;-71
2021/04/08 12:29:25;;;;;;;4.07;2.92;;;9.50;85.80;;;;;;5032876;28;20547;-74
2021/04/08 12:31:54;;;;;;;3.28;2.97;;;9.30;87.40;;;;;;5042814;28;20037;-73
2021/04/08 12:34:21;;;;;;;5.35;2.78;;;9.90;85.30;;;;;;5050391;28;20022;-72
2021/04/08 12:36:48;;;;;;;6.03;3.13;;;10.50;84.50;;;;;;5050873;28;20075;-72
2021/04/08 12:39:14;;;;;;;5.93;3.30;;;10.90;83.50;;;;;;5047674;28;20091;-74
2021/04/08 12:41:39;;;;;;;4.78;2.70;;;11.20;82.30;;;;;;5049449;28;20029;-73
2021/04/08 12:44:06;;;;;;;6.47;3.17;;;10.70;80.40;;;;;;5039424;28;20079;-72
2021/04/08 12:46:32;;;;;;;5.03;2.92;;;10.40;84.30;;;;;;5037577;28;20017;-73
2021/04/08 12:48:58;;;;;;;6.22;2.45;;;11.00;84.10;;;;;;5036553;28;20032;-73
2021/04/08 12:51:24;;;;;;;5.50;2.97;;;11.50;81.10;;;;;;5036853;28;20021;-74
2021/04/08 12:53:49;;;;;;;6.75;3.92;;;11.60;80.30;;;;;;5035402;28;20117;-74
2021/04/08 12:56:16;;;;;;;5.20;3.13;;;13.40;75.60;;;;;;5036261;28;20395;-74
2021/04/08 12:58:42;;;;;;;7.07;3.10;;;14.30;70.60;;;;;;5035978;28;20152;-74
2021/04/08 13:01:08;;;;;;;5.07;3.08;;;12.80;70.10;;;;;;5036678;28;20050;-73
2021/04/08 13:03:34;;;;;;;5.47;3.13;;;11.50;70.80;;;;;;5036773;28;20075;-74
2021/04/08 13:05:59;;;;;;;3.90;2.90;;;12.00;75.20;;;;;;5036355;28;20036;-74